Terminal Aerodrome Forecast
Issued by NWS

Home | Current Version | Previous Version | Graphics & Text | Print | Product List | Glossary On
Versions: 1 2 3 4 5 6 7 8 9 10 11 12
522
FTUS43 KGRB 171134
TAFCWA
TAF
KCWA 171134Z 1712/1812 25010G18KT P6SM SCT080 BKN250 WS017/27035KT
     FM171600 24014G25KT P6SM SCT100 BKN250 WS020/28050KT
     FM172300 24012G18KT P6SM SKC
     FM180700 26008KT P6SM SCT250=

USA.gov is the U.S. government's official web portal to all federal, state and local government web resources and services.